Time;durP1;ratioP1;P1;durP2;ratioP2;P2;SDS_P1;SDS_P2;PMS_P1;PMS_P2;Temp;Humidity;BMP_temperature;BMP_pressure;BME280_temperature;BME280_humidity;BME280_pressure;Samples;Min_cycle;Max_cycle;Signal;HPM_P1;HPM_P2
2023/04/18 00:01:01;;;;;;;7.20;2.58;;;11.20;99.90;;;;;;4863700;29;20372;-90
2023/04/18 00:03:29;;;;;;;7.63;2.50;;;11.20;99.90;;;;;;4863767;29;20084;-91
2023/04/18 00:05:56;;;;;;;6.18;2.22;;;11.10;99.90;;;;;;4863967;29;20039;-90
2023/04/18 00:08:23;;;;;;;6.88;2.08;;;11.20;99.90;;;;;;4864551;29;20041;-89
2023/04/18 00:10:49;;;;;;;10.23;2.53;;;11.20;99.90;;;;;;4863742;29;20036;-89
2023/04/18 00:13:17;;;;;;;3.75;2.33;;;11.20;99.90;;;;;;4863608;29;20092;-89
2023/04/18 00:15:45;;;;;;;6.97;2.40;;;11.20;99.90;;;;;;4863630;29;20021;-90
2023/04/18 00:18:25;;;;;;;5.50;2.55;;;11.10;99.90;;;;;;4863760;29;20039;-90
2023/04/18 00:20:53;;;;;;;9.98;2.85;;;11.10;99.90;;;;;;4864709;29;20029;-91
2023/04/18 00:23:21;;;;;;;7.47;2.45;;;11.10;99.90;;;;;;4866940;29;20033;-92
2023/04/18 00:25:50;;;;;;;4.85;2.70;;;11.10;99.90;;;;;;4866861;29;20029;-90
2023/04/18 00:28:16;;;;;;;10.10;2.33;;;11.10;99.90;;;;;;4866667;29;20048;-91
2023/04/18 00:57:49;;;;;;;10.57;2.78;;;11.00;99.90;;;;;;5262228;23;20152;-89
2023/04/18 01:00:16;;;;;;;9.68;2.58;;;11.00;99.90;;;;;;4869463;29;20024;-88
2023/04/18 01:02:43;;;;;;;4.55;2.42;;;11.00;99.90;;;;;;4869522;29;20044;-88
2023/04/18 01:05:10;;;;;;;6.05;2.65;;;11.00;99.90;;;;;;4869465;29;20036;-88
2023/04/18 01:07:40;;;;;;;9.02;2.85;;;11.00;99.90;;;;;;4874526;29;20046;-89
2023/04/18 01:10:09;;;;;;;5.20;2.47;;;11.00;99.90;;;;;;4866276;29;20060;-88
2023/04/18 01:12:36;;;;;;;11.57;2.80;;;11.00;99.90;;;;;;4866251;29;20025;-89
2023/04/18 01:15:07;;;;;;;9.00;2.58;;;11.00;99.90;;;;;;4850825;29;20516;-88
2023/04/18 01:17:35;;;;;;;6.43;2.50;;;10.90;99.90;;;;;;4862083;29;20040;-88
2023/04/18 01:20:05;;;;;;;6.97;2.40;;;11.00;99.90;;;;;;4850586;29;20558;-89
2023/04/18 01:22:33;;;;;;;11.25;2.70;;;10.90;99.90;;;;;;4862584;29;20036;-88
2023/04/18 01:25:05;;;;;;;6.35;2.70;;;11.00;99.90;;;;;;4865951;29;20036;-89
2023/04/18 01:27:31;;;;;;;6.43;2.58;;;11.00;99.90;;;;;;4865980;29;20100;-89
2023/04/18 01:30:00;;;;;;;4.75;2.72;;;11.00;99.90;;;;;;4850832;29;20084;-88
2023/04/18 01:32:30;;;;;;;10.23;3.25;;;11.00;99.90;;;;;;4855359;29;20033;-89
2023/04/18 01:34:56;;;;;;;8.10;2.60;;;11.00;99.90;;;;;;4832057;29;20501;-88
2023/04/18 01:37:22;;;;;;;6.53;2.55;;;11.00;99.90;;;;;;4831880;29;20034;-88
2023/04/18 01:39:49;;;;;;;6.10;2.95;;;10.90;99.90;;;;;;4832021;29;20037;-90
2023/04/18 01:42:18;;;;;;;7.45;2.80;;;10.90;99.90;;;;;;4832417;29;20029;-89
2023/04/18 01:44:45;;;;;;;5.47;2.35;;;10.90;99.90;;;;;;4847060;29;20033;-89
2023/04/18 01:47:12;;;;;;;10.00;2.63;;;10.80;99.90;;;;;;4831951;29;20093;-89
2023/04/18 01:49:46;;;;;;;7.05;2.45;;;10.90;99.90;;;;;;4846937;29;20036;-88
2023/04/18 01:52:14;;;;;;;6.93;2.95;;;10.80;99.90;;;;;;4847145;29;20033;-89
2023/04/18 01:54:42;;;;;;;6.75;3.47;;;10.80;99.90;;;;;;4846796;29;20460;-89
2023/04/18 01:57:08;;;;;;;7.95;3.08;;;10.80;99.90;;;;;;4843647;29;20054;-89
2023/04/18 01:59:34;;;;;;;6.28;2.85;;;10.80;99.90;;;;;;4843744;29;20037;-88
2023/04/18 02:02:02;;;;;;;6.82;3.20;;;10.80;99.90;;;;;;4828409;29;20491;-89
2023/04/18 02:04:29;;;;;;;7.47;3.30;;;10.70;99.90;;;;;;4843553;29;20030;-88
2023/04/18 02:06:55;;;;;;;7.03;3.58;;;10.70;99.90;;;;;;4843658;29;20511;-88
2023/04/18 02:09:22;;;;;;;5.85;3.20;;;10.70;99.90;;;;;;4843486;29;20113;-89
2023/04/18 02:11:48;;;;;;;7.82;3.58;;;10.80;99.90;;;;;;4843941;29;20022;-89
2023/04/18 02:14:15;;;;;;;8.88;3.58;;;10.80;99.90;;;;;;4843554;29;20063;-88
2023/04/18 02:16:42;;;;;;;9.57;3.20;;;10.90;99.90;;;;;;4828180;29;20037;-88
2023/04/18 02:19:08;;;;;;;10.07;4.05;;;10.90;99.90;;;;;;4838910;29;20037;-90
2023/04/18 02:21:35;;;;;;;5.97;3.60;;;10.90;99.90;;;;;;4843191;29;20045;-88
2023/04/18 02:24:01;;;;;;;6.50;3.50;;;10.90;99.90;;;;;;4843242;29;20510;-89
2023/04/18 02:26:28;;;;;;;6.78;4.32;;;10.90;99.90;;;;;;4843251;29;20037;-87
2023/04/18 02:28:57;;;;;;;8.63;3.70;;;10.80;99.90;;;;;;4843264;29;20503;-89
2023/04/18 02:31:24;;;;;;;7.75;3.75;;;10.70;99.90;;;;;;4843128;29;20090;-88
2023/04/18 02:33:50;;;;;;;3.40;3.05;;;10.70;99.90;;;;;;4843288;29;20036;-88
2023/04/18 02:36:16;;;;;;;7.20;3.13;;;10.70;99.90;;;;;;4843569;29;20050;-88
2023/04/18 02:38:44;;;;;;;6.50;3.15;;;10.80;99.90;;;;;;4843704;29;20034;-92
2023/04/18 02:41:13;;;;;;;7.82;3.60;;;10.80;99.90;;;;;;4827958;29;20059;-88
2023/04/18 02:43:41;;;;;;;8.02;3.38;;;10.80;99.90;;;;;;4842661;29;20076;-87
2023/04/18 02:46:08;;;;;;;10.48;3.80;;;10.90;99.90;;;;;;4827583;29;20480;-88
2023/04/18 02:48:35;;;;;;;8.65;3.50;;;10.90;99.90;;;;;;4842736;29;20045;-90
2023/04/18 02:51:09;;;;;;;8.48;3.65;;;10.90;99.90;;;;;;4842799;29;20044;-87
2023/04/18 02:53:38;;;;;;;8.75;3.60;;;10.90;99.90;;;;;;4843450;29;20437;-87
2023/04/18 02:56:05;;;;;;;6.82;3.53;;;10.90;99.90;;;;;;4827752;29;20026;-88
2023/04/18 02:58:59;;;;;;;6.68;3.85;;;10.90;99.90;;;;;;4835856;29;20075;-87
2023/04/18 03:01:45;;;;;;;7.25;3.38;;;10.90;99.90;;;;;;4842723;29;20492;-88
2023/04/18 03:04:15;;;;;;;7.53;3.55;;;11.00;99.90;;;;;;4843129;29;20038;-88
2023/04/18 03:06:44;;;;;;;6.88;3.50;;;10.90;99.90;;;;;;4842483;29;20106;-91
2023/04/18 03:09:11;;;;;;;7.38;3.83;;;10.90;99.90;;;;;;4842692;29;20026;-89
2023/04/18 03:11:44;;;;;;;6.85;4.00;;;10.90;99.90;;;;;;4843438;29;20045;-88
2023/04/18 03:14:12;;;;;;;11.93;4.47;;;10.90;99.90;;;;;;4842993;29;20041;-89
2023/04/18 03:16:48;;;;;;;9.77;4.30;;;10.90;99.90;;;;;;4842500;29;20449;-89
2023/04/18 03:19:20;;;;;;;5.63;4.05;;;10.90;99.90;;;;;;4843172;29;20038;-89
2023/04/18 03:21:51;;;;;;;5.95;4.20;;;10.90;99.90;;;;;;4842347;29;20603;-87
2023/04/18 03:24:18;;;;;;;13.98;4.70;;;10.80;99.90;;;;;;4842512;29;20041;-90
2023/04/18 03:26:48;;;;;;;9.25;4.53;;;10.90;99.90;;;;;;4842286;29;20117;-90
2023/04/18 03:29:18;;;;;;;10.00;4.10;;;10.90;99.90;;;;;;4842246;29;20480;-88
2023/04/18 03:31:46;;;;;;;7.25;4.55;;;10.80;99.90;;;;;;4842130;29;20421;-90
2023/04/18 03:34:12;;;;;;;8.15;4.72;;;10.80;99.90;;;;;;4842524;29;20480;-89
2023/04/18 03:36:39;;;;;;;6.70;4.95;;;10.80;99.90;;;;;;4842471;29;20034;-91
2023/04/18 03:39:06;;;;;;;10.88;4.35;;;10.80;99.90;;;;;;4842133;29;20041;-91
2023/04/18 03:41:33;;;;;;;7.90;4.30;;;10.80;99.90;;;;;;4842017;29;20030;-89
2023/04/18 03:44:01;;;;;;;8.25;4.18;;;10.70;99.90;;;;;;4827573;29;20042;-89
2023/04/18 03:46:27;;;;;;;8.65;4.38;;;10.80;99.90;;;;;;4842104;29;20040;-90
2023/04/18 03:48:56;;;;;;;8.25;5.50;;;10.80;99.90;;;;;;4842190;29;20163;-89
2023/04/18 03:51:22;;;;;;;9.57;4.53;;;10.80;99.90;;;;;;4841918;29;20063;-88
2023/04/18 03:53:49;;;;;;;6.72;4.53;;;10.90;99.90;;;;;;4842387;29;20038;-88
2023/04/18 03:56:17;;;;;;;9.50;4.70;;;10.90;99.90;;;;;;4844211;29;20030;-88
2023/04/18 03:58:50;;;;;;;5.50;3.90;;;10.90;99.90;;;;;;4827569;29;20050;-89
2023/04/18 04:01:18;;;;;;;8.68;4.20;;;10.90;99.90;;;;;;4812292;29;20037;-88
2023/04/18 04:03:45;;;;;;;9.63;4.15;;;10.90;99.90;;;;;;4812101;29;20030;-89
2023/04/18 04:06:12;;;;;;;12.20;4.07;;;10.90;99.90;;;;;;4827319;29;20031;-89
2023/04/18 04:08:38;;;;;;;8.30;4.65;;;10.90;99.90;;;;;;4827027;29;20042;-88
2023/04/18 04:11:05;;;;;;;9.43;4.43;;;10.90;99.90;;;;;;4827125;29;20041;-88
2023/04/18 04:13:33;;;;;;;8.70;4.47;;;10.90;99.90;;;;;;4812245;29;20026;-89
2023/04/18 04:15:59;;;;;;;7.95;4.20;;;11.00;99.90;;;;;;4827154;29;20110;-89
2023/04/18 04:18:28;;;;;;;8.57;4.07;;;11.00;99.90;;;;;;4812239;29;20030;-89
2023/04/18 04:20:57;;;;;;;10.88;4.00;;;11.00;99.90;;;;;;4830651;29;20058;-88
2023/04/18 04:23:42;;;;;;;11.32;4.05;;;11.00;99.90;;;;;;4814320;29;20035;-88
2023/04/18 04:26:14;;;;;;;5.40;3.50;;;11.10;99.90;;;;;;4813066;29;20556;-89
2023/04/18 04:28:50;;;;;;;6.68;3.78;;;11.10;99.90;;;;;;4813076;29;20050;-91
2023/04/18 04:31:22;;;;;;;6.65;3.78;;;11.10;99.90;;;;;;4826993;29;20034;-89
2023/04/18 04:33:49;;;;;;;8.00;3.70;;;11.10;99.90;;;;;;4826632;29;20038;-89
2023/04/18 04:36:20;;;;;;;4.47;3.58;;;11.10;99.90;;;;;;4827079;29;20110;-92
2023/04/18 04:38:51;;;;;;;6.75;3.53;;;11.20;99.90;;;;;;4826840;29;20125;-90
2023/04/18 04:41:26;;;;;;;5.07;3.45;;;11.20;99.90;;;;;;4812504;29;20038;-90
2023/04/18 04:43:53;;;;;;;6.10;3.13;;;11.20;99.90;;;;;;4826831;29;20142;-90
2023/04/18 04:46:29;;;;;;;7.63;3.35;;;11.20;99.90;;;;;;4826525;29;20027;-89
2023/04/18 04:48:56;;;;;;;4.22;3.05;;;11.20;99.90;;;;;;4811572;29;20042;-89
2023/04/18 04:51:26;;;;;;;3.90;3.50;;;11.20;99.90;;;;;;4811720;29;20037;-89
2023/04/18 04:53:54;;;;;;;6.22;3.30;;;11.20;99.90;;;;;;4809221;29;20038;-91
2023/04/18 04:56:23;;;;;;;5.13;3.30;;;11.30;99.90;;;;;;4811599;29;20057;-89
2023/04/18 04:58:51;;;;;;;6.43;3.28;;;11.30;99.90;;;;;;4845080;29;20042;-90
2023/04/18 05:01:41;;;;;;;4.43;3.50;;;11.30;99.90;;;;;;4844677;29;20046;-91
2023/04/18 05:04:08;;;;;;;3.90;3.47;;;11.40;99.90;;;;;;4845291;29;20091;-91
2023/04/18 05:06:35;;;;;;;4.07;3.30;;;11.40;99.90;;;;;;4830101;29;20054;-90
2023/04/18 05:09:01;;;;;;;5.28;3.38;;;11.50;99.90;;;;;;4850057;29;20120;-90
2023/04/18 05:11:28;;;;;;;5.43;3.30;;;11.50;99.90;;;;;;4856861;29;20029;-92
2023/04/18 05:13:54;;;;;;;5.18;3.60;;;11.50;99.90;;;;;;4847685;29;20038;-92
2023/04/18 05:16:21;;;;;;;4.22;3.35;;;11.60;99.90;;;;;;4862981;29;20040;-90
2023/04/18 05:18:48;;;;;;;4.68;3.60;;;11.60;99.90;;;;;;4863683;29;20038;-91
2023/04/18 05:21:14;;;;;;;4.32;3.83;;;11.60;99.90;;;;;;4858003;29;20033;-89
2023/04/18 05:23:41;;;;;;;6.50;3.67;;;11.70;99.90;;;;;;4828933;29;20113;-90
2023/04/18 05:26:07;;;;;;;4.82;3.75;;;11.60;99.90;;;;;;4845704;29;20037;-90
2023/04/18 05:28:36;;;;;;;6.07;3.80;;;11.60;99.90;;;;;;4862773;29;20116;-90
2023/04/18 05:31:02;;;;;;;5.43;4.13;;;11.50;99.90;;;;;;4862721;29;20112;-89
2023/04/18 05:33:32;;;;;;;8.73;4.40;;;11.50;99.90;;;;;;4862469;29;20037;-89
2023/04/18 05:35:58;;;;;;;5.25;4.03;;;11.60;99.90;;;;;;4862517;29;20025;-88
2023/04/18 05:38:25;;;;;;;8.40;4.28;;;11.70;99.90;;;;;;4862684;29;20117;-88
2023/04/18 05:40:54;;;;;;;10.38;4.70;;;11.60;99.90;;;;;;4862518;29;20029;-88
2023/04/18 05:43:21;;;;;;;7.85;5.15;;;11.60;99.90;;;;;;4862418;29;20033;-89
2023/04/18 05:45:48;;;;;;;7.30;4.75;;;11.60;99.90;;;;;;4862386;29;20081;-89
2023/04/18 05:48:14;;;;;;;8.07;4.97;;;11.50;99.90;;;;;;4862419;29;20045;-90
2023/04/18 05:50:44;;;;;;;10.60;5.00;;;11.40;99.90;;;;;;4862450;29;20026;-88
2023/04/18 05:53:11;;;;;;;7.63;5.00;;;11.40;99.90;;;;;;4862245;29;20407;-90
2023/04/18 05:55:39;;;;;;;9.57;5.57;;;11.40;99.90;;;;;;4862661;29;20391;-89
2023/04/18 05:58:06;;;;;;;9.60;5.55;;;11.50;99.90;;;;;;4862263;29;20058;-91
2023/04/18 06:00:33;;;;;;;8.70;5.50;;;11.50;99.90;;;;;;4862076;29;20042;-90
2023/04/18 06:03:00;;;;;;;9.20;5.55;;;11.50;99.90;;;;;;4846708;29;20034;-90
2023/04/18 06:05:27;;;;;;;10.88;5.75;;;11.50;99.90;;;;;;4861897;29;20030;-90
2023/04/18 06:07:54;;;;;;;10.88;6.15;;;11.60;99.90;;;;;;4846564;29;20045;-90
2023/04/18 06:10:20;;;;;;;10.95;6.28;;;11.70;99.90;;;;;;4862365;29;20571;-88
2023/04/18 06:12:57;;;;;;;9.45;5.80;;;11.70;99.90;;;;;;4861912;29;20034;-90
2023/04/18 06:15:24;;;;;;;8.27;5.60;;;11.80;99.90;;;;;;4862309;29;20033;-91
2023/04/18 06:17:51;;;;;;;8.40;5.80;;;11.80;99.90;;;;;;4861894;29;20030;-90
2023/04/18 06:20:17;;;;;;;11.00;6.15;;;11.90;99.90;;;;;;4862159;29;20038;-90
2023/04/18 06:22:44;;;;;;;15.27;5.53;;;12.10;99.90;;;;;;4861908;29;20033;-90
2023/04/18 06:25:11;;;;;;;11.55;5.25;;;12.20;99.90;;;;;;4846300;29;20066;-89
2023/04/18 06:27:37;;;;;;;8.13;4.75;;;12.30;99.90;;;;;;4861347;29;20046;-90
2023/04/18 06:30:06;;;;;;;11.80;4.90;;;12.30;99.90;;;;;;4861992;29;20096;-89
2023/04/18 06:32:33;;;;;;;8.40;4.55;;;12.50;99.90;;;;;;4861923;29;20029;-88
2023/04/18 06:35:00;;;;;;;7.93;4.57;;;12.50;99.90;;;;;;4846091;29;20036;-89
2023/04/18 06:37:27;;;;;;;8.25;4.85;;;12.50;99.90;;;;;;4862692;29;20033;-90
2023/04/18 06:39:53;;;;;;;9.02;4.07;;;12.60;99.90;;;;;;4861860;29;20082;-89
2023/04/18 06:42:20;;;;;;;7.93;3.78;;;12.50;99.90;;;;;;4862058;29;20081;-89
2023/04/18 06:44:47;;;;;;;4.30;3.45;;;12.50;99.90;;;;;;4861397;29;20030;-90
2023/04/18 06:47:14;;;;;;;5.13;3.28;;;12.50;99.90;;;;;;4861182;29;20033;-91
2023/04/18 06:49:41;;;;;;;6.43;3.67;;;12.60;99.90;;;;;;4846066;29;20033;-90
2023/04/18 06:52:08;;;;;;;6.15;2.65;;;12.60;99.90;;;;;;4845943;29;20040;-90
2023/04/18 06:54:36;;;;;;;5.57;3.33;;;12.60;99.90;;;;;;4845666;29;20072;-89
2023/04/18 06:57:03;;;;;;;6.90;3.47;;;12.60;99.90;;;;;;4848173;29;20085;-90
2023/04/18 06:59:30;;;;;;;5.35;3.03;;;12.70;99.90;;;;;;4861436;29;20034;-90
2023/04/18 07:01:56;;;;;;;3.45;2.95;;;12.70;99.90;;;;;;4861061;29;20029;-90
2023/04/18 07:04:23;;;;;;;5.45;3.35;;;12.90;99.90;;;;;;4861242;29;20062;-89
2023/04/18 07:06:51;;;;;;;5.95;2.90;;;12.90;99.90;;;;;;4860999;29;20507;-91
2023/04/18 07:09:18;;;;;;;4.13;2.50;;;13.00;99.90;;;;;;4861030;29;20041;-91
2023/04/18 14:06:31;;;;;;;5.22;4.80;;;15.10;99.90;;;;;;4861299;29;20084;-91
2023/04/18 14:08:58;;;;;;;4.78;4.40;;;15.10;99.90;;;;;;4831277;29;20041;-89
2023/04/18 14:11:43;;;;;;;8.13;6.78;;;15.30;99.90;;;;;;4832339;29;20049;-91
2023/04/18 14:14:09;;;;;;;6.03;5.53;;;15.50;99.90;;;;;;4849187;29;20057;-91
2023/04/18 14:16:36;;;;;;;6.32;5.78;;;15.50;99.90;;;;;;4832158;29;20097;-92
2023/04/18 14:19:02;;;;;;;6.15;5.75;;;15.60;99.90;;;;;;4846707;29;20041;-91
2023/04/18 14:21:30;;;;;;;7.00;6.40;;;15.60;99.90;;;;;;4846406;29;20040;-92
2023/04/18 14:23:56;;;;;;;6.45;6.15;;;15.60;99.90;;;;;;4847346;29;20387;-92
2023/04/18 14:26:23;;;;;;;7.07;6.20;;;15.60;99.90;;;;;;4847701;29;20038;-91
2023/04/18 14:28:49;;;;;;;7.47;5.97;;;15.50;99.90;;;;;;4849120;29;20097;-91
2023/04/18 14:31:16;;;;;;;6.15;5.85;;;15.50;99.90;;;;;;4847536;29;20025;-90
2023/04/18 14:33:42;;;;;;;8.32;6.40;;;15.60;99.90;;;;;;4846542;29;20033;-91
2023/04/18 14:36:09;;;;;;;7.40;7.10;;;15.70;99.90;;;;;;4846159;29;20030;-92
2023/04/18 14:38:36;;;;;;;6.93;6.53;;;15.70;99.90;;;;;;4846281;29;20038;-91
2023/04/18 14:41:05;;;;;;;6.50;6.20;;;15.80;99.90;;;;;;4830838;29;20062;-91
2023/04/18 14:43:32;;;;;;;7.55;7.10;;;16.10;99.90;;;;;;4846083;29;20033;-90
2023/04/18 14:45:59;;;;;;;8.65;8.15;;;16.10;99.90;;;;;;4846023;29;20456;-91
2023/04/18 14:48:29;;;;;;;8.65;8.00;;;15.80;99.90;;;;;;4846150;29;20041;-90
2023/04/18 14:51:01;;;;;;;8.25;7.85;;;15.90;99.90;;;;;;4846252;29;20061;-93
2023/04/18 14:53:28;;;;;;;8.55;8.15;;;15.80;99.90;;;;;;4846034;29;20116;-90
2023/04/18 14:55:55;;;;;;;7.93;7.53;;;15.90;99.90;;;;;;4847271;29;20026;-93
2023/04/18 14:58:21;;;;;;;7.80;7.40;;;15.80;99.90;;;;;;4846515;29;20029;-91
2023/04/18 15:00:48;;;;;;;8.10;7.40;;;15.90;99.90;;;;;;4846775;29;20033;-93
2023/04/18 15:03:18;;;;;;;7.35;6.95;;;16.20;99.90;;;;;;4845836;29;20063;-92
2023/04/18 15:05:47;;;;;;;8.73;8.30;;;16.20;99.90;;;;;;4845508;29;20411;-93
2023/04/18 15:08:15;;;;;;;9.10;8.65;;;16.00;99.90;;;;;;4845723;29;20045;-93
2023/04/18 15:10:45;;;;;;;9.50;8.60;;;16.00;99.90;;;;;;4846019;29;20057;-90
2023/04/18 15:13:12;;;;;;;9.85;9.15;;;16.10;99.90;;;;;;4846592;29;20037;-91
2023/04/18 15:15:38;;;;;;;9.98;9.23;;;16.10;99.90;;;;;;4845874;29;20040;-95
2023/04/18 15:18:09;;;;;;;9.70;9.20;;;16.00;99.90;;;;;;4845786;29;20034;-92
2023/04/18 15:20:36;;;;;;;9.45;9.05;;;15.90;99.90;;;;;;4845723;29;20029;-90
2023/04/18 15:23:03;;;;;;;10.88;10.23;;;16.00;99.90;;;;;;4845729;29;20029;-91
2023/04/18 15:25:29;;;;;;;9.90;9.40;;;16.20;99.90;;;;;;4845485;29;20032;-93
2023/04/18 15:27:57;;;;;;;10.38;9.40;;;16.20;99.90;;;;;;4845699;29;20041;-94
2023/04/18 15:30:24;;;;;;;8.88;8.38;;;16.20;99.90;;;;;;4845360;29;20040;-92
2023/04/18 15:32:50;;;;;;;9.35;8.75;;;16.40;99.90;;;;;;4845802;29;20080;-91
2023/04/18 15:35:17;;;;;;;10.63;9.90;;;16.50;99.90;;;;;;4845592;29;20119;-93
2023/04/18 15:37:43;;;;;;;10.90;10.30;;;16.30;99.90;;;;;;4846018;29;20056;-93
2023/04/18 15:40:14;;;;;;;10.60;10.00;;;16.20;99.90;;;;;;4845502;29;20054;-92
2023/04/18 15:42:42;;;;;;;11.18;10.57;;;16.20;99.90;;;;;;4845917;29;20101;-93
2023/04/18 15:45:10;;;;;;;11.77;11.00;;;16.10;99.90;;;;;;4845428;29;20479;-93
2023/04/18 15:47:37;;;;;;;11.10;10.50;;;16.20;99.90;;;;;;4845394;29;20136;-93
2023/04/18 15:50:04;;;;;;;10.75;10.25;;;16.00;99.90;;;;;;4845415;29;20120;-92
2023/04/18 15:52:31;;;;;;;10.52;9.82;;;15.80;99.90;;;;;;4847878;29;20032;-93
2023/04/18 15:54:57;;;;;;;10.35;9.52;;;15.70;99.90;;;;;;4849129;29;20508;-91
2023/04/18 15:57:24;;;;;;;9.60;9.00;;;15.70;99.90;;;;;;4849220;29;20487;-91
2023/04/18 15:59:50;;;;;;;10.13;9.63;;;15.60;99.90;;;;;;4849142;29;20044;-92
2023/04/18 16:02:17;;;;;;;10.82;10.25;;;15.60;99.90;;;;;;4848832;29;20033;-90
2023/04/18 16:04:43;;;;;;;10.55;9.70;;;15.50;99.90;;;;;;4844291;29;20046;-92
2023/04/18 16:07:10;;;;;;;9.00;8.60;;;15.30;99.90;;;;;;4830406;29;20037;-90
2023/04/18 16:09:37;;;;;;;8.65;8.25;;;15.40;99.90;;;;;;4830726;29;20120;-91
2023/04/18 16:12:04;;;;;;;8.65;7.75;;;15.30;99.90;;;;;;4830977;29;20559;-93
2023/04/18 16:14:32;;;;;;;7.82;7.47;;;15.20;99.90;;;;;;4830460;29;20400;-90
2023/04/18 16:16:59;;;;;;;7.00;6.53;;;15.10;99.90;;;;;;4830972;29;20036;-92
2023/04/18 16:19:25;;;;;;;6.50;6.10;;;15.00;99.90;;;;;;4830472;29;20407;-90
2023/04/18 16:21:52;;;;;;;7.10;6.53;;;14.90;99.90;;;;;;4830885;29;20022;-92
2023/04/18 16:24:18;;;;;;;6.30;5.90;;;14.90;99.90;;;;;;4830855;29;20037;-92
2023/04/18 16:26:45;;;;;;;6.22;5.90;;;14.90;99.90;;;;;;4830313;29;20041;-90
2023/04/18 16:29:11;;;;;;;6.20;5.75;;;14.90;99.90;;;;;;4830167;29;20029;-91
2023/04/18 16:31:38;;;;;;;6.38;5.97;;;14.80;99.90;;;;;;4830157;29;20022;-92
2023/04/18 16:34:04;;;;;;;7.25;6.68;;;14.80;99.90;;;;;;4829987;29;20073;-92
2023/04/18 16:36:40;;;;;;;7.60;6.82;;;14.80;99.90;;;;;;4830085;29;20086;-91
2023/04/18 16:39:06;;;;;;;7.10;6.40;;;14.80;99.90;;;;;;4830181;29;20040;-92
2023/04/18 16:41:32;;;;;;;7.13;6.55;;;14.80;99.90;;;;;;4831536;29;20401;-91
2023/04/18 16:43:59;;;;;;;7.22;6.65;;;14.90;99.90;;;;;;4829931;29;20037;-91
2023/04/18 16:46:30;;;;;;;7.43;6.57;;;14.90;99.90;;;;;;4830235;29;20036;-91
2023/04/18 16:48:57;;;;;;;6.53;5.95;;;14.90;99.90;;;;;;4829841;29;20042;-94
2023/04/18 16:51:25;;;;;;;5.20;4.90;;;14.90;99.90;;;;;;4829910;29;20042;-90
2023/04/18 16:53:51;;;;;;;6.88;6.00;;;14.80;99.90;;;;;;4830571;29;20480;-92
2023/04/18 16:56:17;;;;;;;7.47;6.78;;;14.80;99.90;;;;;;4830973;29;20034;-92
2023/04/18 16:58:44;;;;;;;7.68;6.97;;;14.70;99.90;;;;;;4830337;29;20037;-92
2023/04/18 17:01:10;;;;;;;7.10;6.40;;;14.60;99.90;;;;;;4829811;29;20119;-91
2023/04/18 17:03:37;;;;;;;6.00;5.50;;;14.50;99.90;;;;;;4828496;29;20103;-91
2023/04/18 17:06:04;;;;;;;5.47;5.00;;;14.40;99.90;;;;;;4844354;29;20049;-91
2023/04/18 17:08:32;;;;;;;5.07;4.68;;;14.40;99.90;;;;;;4847993;29;20037;-91
2023/04/18 17:11:00;;;;;;;5.00;4.32;;;14.30;99.90;;;;;;4847959;29;20025;-92
2023/04/18 17:13:30;;;;;;;4.75;4.35;;;14.10;99.90;;;;;;4847948;29;20052;-90
2023/04/18 17:15:57;;;;;;;5.07;4.60;;;14.10;99.90;;;;;;4848095;29;20547;-93
2023/04/18 17:18:23;;;;;;;8.98;4.82;;;14.00;99.90;;;;;;4848374;29;20037;-90
2023/04/18 17:20:50;;;;;;;6.80;5.60;;;14.00;99.90;;;;;;4847821;29;20037;-92
2023/04/18 17:23:17;;;;;;;7.05;5.38;;;14.00;99.90;;;;;;4847733;29;20033;-91
2023/04/18 17:25:43;;;;;;;6.88;5.63;;;13.90;99.90;;;;;;4847516;29;20427;-93
2023/04/18 17:28:10;;;;;;;6.43;5.75;;;13.90;99.90;;;;;;4848369;29;20041;-91
2023/04/18 17:30:42;;;;;;;12.95;7.60;;;13.80;99.90;;;;;;4847452;29;20029;-92
2023/04/18 17:33:09;;;;;;;9.82;6.65;;;13.70;99.90;;;;;;4847743;29;20035;-90
2023/04/18 17:35:56;;;;;;;9.68;6.78;;;13.70;99.90;;;;;;4847915;29;20026;-90
2023/04/18 17:38:22;;;;;;;10.98;6.15;;;13.70;99.90;;;;;;4847609;29;20030;-91
2023/04/18 17:41:00;;;;;;;7.60;6.10;;;13.70;99.90;;;;;;4847470;29;20105;-92
2023/04/18 17:43:27;;;;;;;6.85;5.63;;;13.60;99.90;;;;;;4849493;29;20173;-92
2023/04/18 17:45:58;;;;;;;7.57;5.20;;;13.60;99.90;;;;;;4847597;29;20025;-92
2023/04/18 17:48:25;;;;;;;15.75;8.93;;;13.50;99.90;;;;;;4847286;29;20057;-93
2023/04/18 17:50:51;;;;;;;12.65;8.32;;;13.40;99.90;;;;;;4847129;29;20029;-91
2023/04/18 17:53:17;;;;;;;11.43;7.95;;;13.40;99.90;;;;;;4847480;29;20068;-91
2023/04/18 17:55:47;;;;;;;10.50;7.63;;;13.30;99.90;;;;;;4847600;29;20026;-93
2023/04/18 17:58:15;;;;;;;13.40;9.05;;;13.40;99.90;;;;;;4847866;29;20037;-92
2023/04/18 18:00:44;;;;;;;14.88;9.35;;;13.40;99.90;;;;;;4852241;29;20029;-90
2023/04/18 18:03:14;;;;;;;12.23;8.65;;;13.50;99.90;;;;;;4857026;29;20029;-89
2023/04/18 18:05:43;;;;;;;7.55;5.63;;;13.50;99.90;;;;;;4848254;29;20045;-93
2023/04/18 18:08:10;;;;;;;4.22;3.83;;;13.50;99.90;;;;;;4847477;29;20089;-92
2023/04/18 18:10:37;;;;;;;8.63;5.93;;;13.60;99.90;;;;;;4846825;29;20069;-91
2023/04/18 18:13:04;;;;;;;5.13;4.15;;;13.60;99.90;;;;;;4846952;29;20097;-92
2023/04/18 18:15:32;;;;;;;9.13;6.15;;;13.60;99.90;;;;;;4847045;29;20030;-91
2023/04/18 18:18:00;;;;;;;12.38;9.25;;;13.60;99.90;;;;;;4847063;29;20479;-92
2023/04/18 18:20:27;;;;;;;10.60;8.57;;;13.60;99.90;;;;;;4846992;29;20112;-92
2023/04/18 18:22:54;;;;;;;12.60;9.98;;;13.60;99.90;;;;;;4847242;29;20184;-91
2023/04/18 18:25:20;;;;;;;10.32;8.45;;;13.60;99.90;;;;;;4850367;29;20029;-91
2023/04/18 18:27:48;;;;;;;9.20;7.93;;;13.60;99.90;;;;;;4848401;29;20049;-90
2023/04/18 18:30:16;;;;;;;17.00;11.75;;;13.50;99.90;;;;;;4846440;29;20081;-91
2023/04/18 18:32:43;;;;;;;10.63;9.25;;;13.60;99.90;;;;;;4846815;29;20038;-92
2023/04/18 18:35:11;;;;;;;8.60;7.00;;;13.60;99.90;;;;;;4846809;29;20479;-94
2023/04/18 18:37:39;;;;;;;9.55;7.07;;;13.60;99.90;;;;;;4847055;29;20108;-92
2023/04/18 18:40:07;;;;;;;8.85;7.05;;;13.50;99.90;;;;;;4846465;29;20436;-91
2023/04/18 18:42:34;;;;;;;7.30;6.47;;;13.50;99.90;;;;;;4846181;29;20089;-91
2023/04/18 18:45:00;;;;;;;7.10;6.40;;;13.50;99.90;;;;;;4847251;29;20033;-92
2023/04/18 18:47:26;;;;;;;10.35;8.50;;;13.40;99.90;;;;;;4830948;29;20077;-92
2023/04/18 18:49:55;;;;;;;14.23;10.55;;;13.40;99.90;;;;;;4846198;29;20225;-92
2023/04/18 18:52:23;;;;;;;15.52;10.63;;;13.40;99.90;;;;;;4846500;29;20029;-91
2023/04/18 18:54:49;;;;;;;14.00;10.30;;;13.40;99.90;;;;;;4846153;29;20033;-92
2023/04/18 18:57:16;;;;;;;11.27;9.38;;;13.40;99.90;;;;;;4845887;29;20033;-92
2023/04/18 18:59:43;;;;;;;10.65;7.88;;;13.40;99.90;;;;;;4846047;29;20105;-92
2023/04/18 19:02:10;;;;;;;17.48;11.02;;;13.40;99.90;;;;;;4845848;29;20085;-90
2023/04/18 19:04:37;;;;;;;25.85;14.85;;;13.30;99.90;;;;;;4844013;29;20060;-90
2023/04/18 19:07:04;;;;;;;16.25;11.48;;;13.30;99.90;;;;;;4845743;29;20044;-91
2023/04/18 19:09:31;;;;;;;19.33;12.68;;;13.30;99.90;;;;;;4845923;29;20042;-91
2023/04/18 19:11:57;;;;;;;14.75;10.25;;;13.30;99.90;;;;;;4846494;29;20104;-93
2023/04/18 19:14:26;;;;;;;12.20;9.73;;;13.30;99.90;;;;;;4845885;29;20125;-91
2023/04/18 19:16:54;;;;;;;12.77;9.75;;;13.30;99.90;;;;;;4845756;29;20026;-93
2023/04/18 19:19:21;;;;;;;8.15;7.30;;;13.20;99.90;;;;;;4845892;29;20033;-90
2023/04/18 19:21:48;;;;;;;21.33;12.43;;;13.20;99.90;;;;;;4845796;29;20540;-92
2023/04/18 19:24:14;;;;;;;14.75;11.18;;;13.20;99.90;;;;;;4845645;29;20479;-91
2023/04/18 19:26:41;;;;;;;12.52;10.50;;;13.10;99.90;;;;;;4845055;29;20029;-90
2023/04/18 19:29:12;;;;;;;16.27;10.60;;;13.10;99.90;;;;;;4845817;29;20041;-90
2023/04/18 19:31:42;;;;;;;14.05;11.45;;;13.10;99.90;;;;;;4845530;29;20037;-91
2023/04/18 19:34:09;;;;;;;11.95;8.80;;;13.10;99.90;;;;;;4845969;29;20429;-91
2023/04/18 19:36:37;;;;;;;11.48;9.13;;;13.10;99.90;;;;;;4845678;29;20116;-91
2023/04/18 19:39:04;;;;;;;14.93;11.40;;;13.10;99.90;;;;;;4845626;29;20045;-92
2023/04/18 19:41:33;;;;;;;19.10;12.85;;;13.10;99.90;;;;;;4845991;29;20026;-90
2023/04/18 19:44:02;;;;;;;14.35;10.60;;;13.00;99.90;;;;;;4836401;29;20034;-90
2023/04/18 19:46:29;;;;;;;16.90;11.90;;;13.00;99.90;;;;;;4828560;29;20460;-90
2023/04/18 19:48:55;;;;;;;15.75;11.60;;;13.00;99.90;;;;;;4828045;29;20045;-91
2023/04/18 19:51:21;;;;;;;14.35;10.73;;;13.00;99.90;;;;;;4827677;29;20038;-91
2023/04/18 19:53:48;;;;;;;12.85;9.73;;;13.00;99.90;;;;;;4827447;29;20029;-90
2023/04/18 19:56:17;;;;;;;12.35;10.00;;;13.00;99.90;;;;;;4828473;29;20168;-93
2023/04/18 19:58:44;;;;;;;16.67;10.43;;;12.90;99.90;;;;;;4827279;29;20041;-92
2023/04/18 20:01:16;;;;;;;14.02;10.30;;;12.90;99.90;;;;;;4827290;29;20038;-91
2023/04/18 20:03:47;;;;;;;13.27;10.27;;;12.90;99.90;;;;;;4828775;29;20098;-93
2023/04/18 20:06:19;;;;;;;15.93;11.20;;;12.90;99.90;;;;;;4822907;29;20492;-93
2023/04/18 20:08:45;;;;;;;17.55;12.30;;;12.80;99.90;;;;;;4827128;29;20050;-92